createdAt,value
2023-02-09T00:02:50.701Z,91.72
2023-02-09T00:07:54.451Z,91.81
2023-02-09T00:13:16.513Z,92.03
2023-02-09T00:18:20.775Z,92.31
2023-02-09T00:23:25.092Z,92.57
2023-02-09T00:28:29.851Z,92.76
2023-02-09T00:33:33.492Z,92.61
2023-02-09T00:38:37.860Z,92.56
2023-02-09T00:43:41.597Z,92.91
2023-02-09T00:48:45.240Z,92.84
2023-02-09T00:53:48.895Z,93.05
2023-02-09T00:58:53.049Z,93.05
2023-02-09T01:03:57.219Z,92.94
2023-02-09T01:09:01.738Z,92.88
2023-02-09T01:14:05.431Z,93.35
2023-02-09T01:19:12.426Z,93.17
2023-02-09T01:24:16.549Z,92.96
2023-02-09T01:29:21.515Z,93.04
2023-02-09T01:34:25.108Z,93.00
2023-02-09T01:39:28.882Z,93.23
2023-02-09T01:45:02.536Z,93.31
2023-02-09T01:50:06.678Z,93.32
2023-02-09T01:55:16.041Z,93.39
2023-02-09T02:00:20.850Z,93.61
2023-02-09T02:05:25.795Z,93.55
2023-02-09T02:10:31.303Z,93.48
2023-02-09T02:15:47.957Z,93.68
2023-02-09T02:21:14.568Z,93.94
2023-02-09T02:26:55.843Z,93.77
2023-02-09T02:32:05.603Z,93.94
2023-02-09T02:37:53.909Z,94.06
2023-02-09T02:43:27.576Z,94.19
2023-02-09T02:49:15.220Z,94.24
2023-02-09T02:54:27.934Z,94.39
2023-02-09T02:59:37.220Z,94.59
2023-02-09T03:04:41.597Z,94.60
2023-02-09T03:09:57.790Z,94.57
2023-02-09T03:15:15.397Z,94.22
2023-02-09T03:20:59.179Z,94.15
2023-02-09T03:26:10.877Z,93.55
2023-02-09T03:31:14.735Z,93.38
2023-02-09T03:36:19.514Z,93.30
2023-02-09T03:41:23.218Z,93.28
2023-02-09T03:46:27.003Z,93.41
2023-02-09T03:51:30.942Z,93.63
2023-02-09T03:56:38.549Z,93.30
2023-02-09T04:01:43.459Z,93.30
2023-02-09T04:06:48.538Z,93.26
2023-02-09T04:11:52.510Z,93.30
2023-02-09T04:16:56.533Z,93.26
2023-02-09T04:22:01.293Z,93.20
2023-02-09T04:27:06.716Z,93.17
2023-02-09T04:32:10.902Z,93.23
2023-02-09T04:37:15.386Z,93.52
2023-02-09T04:42:19.028Z,93.42
2023-02-09T04:47:22.626Z,93.50
2023-02-09T04:52:26.277Z,93.70
2023-02-09T04:57:48.721Z,93.71
2023-02-09T05:02:52.483Z,93.78
2023-02-09T05:07:56.239Z,93.85
2023-02-09T05:12:59.940Z,93.78
2023-02-09T05:18:03.617Z,94.19
2023-02-09T05:23:07.375Z,94.51
2023-02-09T05:28:11.058Z,94.22
2023-02-09T05:33:14.648Z,94.32
2023-02-09T05:38:18.724Z,94.25
2023-02-09T05:43:22.470Z,93.86
2023-02-09T05:48:26.444Z,94.16
2023-02-09T05:53:32.702Z,94.39
2023-02-09T05:58:36.556Z,94.27
2023-02-09T06:03:40.265Z,94.60
2023-02-09T06:08:44.158Z,94.22
2023-02-09T06:13:48.597Z,94.04
2023-02-09T06:18:52.867Z,94.24
2023-02-09T06:23:56.635Z,94.54
2023-02-09T06:29:00.995Z,94.70
2023-02-09T06:34:06.824Z,94.72
2023-02-09T06:39:10.907Z,94.46
2023-02-09T06:44:14.809Z,94.52
2023-02-09T06:49:19.349Z,94.27
2023-02-09T06:54:24.155Z,94.19
2023-02-09T06:59:37.030Z,94.49
2023-02-09T07:04:45.600Z,94.46
2023-02-09T07:09:51.234Z,94.26
2023-02-09T07:15:00.146Z,94.11
2023-02-09T07:20:07.029Z,94.42
2023-02-09T07:25:12.483Z,94.66
2023-02-09T07:30:16.864Z,94.41
2023-02-09T07:35:35.689Z,94.47
2023-02-09T07:41:08.989Z,94.58
2023-02-09T07:46:23.756Z,94.40
2023-02-09T07:51:34.400Z,94.19
2023-02-09T07:56:42.248Z,94.10
2023-02-09T08:02:21.967Z,93.61
2023-02-09T08:22:14.202Z,92.50
2023-02-09T08:27:48.676Z,92.28
2023-02-09T08:33:54.088Z,91.92
2023-02-09T08:39:11.206Z,91.80
2023-02-09T08:44:21.305Z,91.23
2023-02-09T08:49:25.614Z,90.88
2023-02-09T08:54:32.501Z,90.28
2023-02-09T08:59:46.330Z,89.96
2023-02-09T09:19:52.235Z,89.66
2023-02-09T09:48:08.561Z,85.93
2023-02-09T10:11:07.089Z,84.85
2023-02-09T10:51:46.994Z,78.84
2023-02-09T10:57:40.752Z,78.59
2023-02-09T11:03:48.864Z,77.24
2023-02-09T11:10:05.457Z,76.71
2023-02-09T11:16:24.590Z,76.54
2023-02-09T11:22:55.580Z,76.24
2023-02-09T11:29:29.441Z,74.87
2023-02-09T11:35:57.289Z,73.58
2023-02-09T11:43:07.167Z,74.33
2023-02-09T11:49:32.966Z,73.96
2023-02-09T11:56:07.961Z,73.05
2023-02-09T12:02:32.502Z,73.35
2023-02-09T12:08:53.075Z,71.65
2023-02-09T12:15:09.740Z,71.64
2023-02-09T12:21:46.245Z,71.53
2023-02-09T12:27:54.413Z,71.10
2023-02-09T12:34:04.705Z,70.73
2023-02-09T12:40:21.609Z,70.45
2023-02-09T12:46:32.894Z,70.66
2023-02-09T12:53:02.520Z,70.75
2023-02-09T12:59:51.084Z,69.28
2023-02-09T13:06:22.644Z,69.23
2023-02-09T13:20:20.775Z,68.75
2023-02-09T13:26:46.639Z,68.74
2023-02-09T13:33:20.381Z,68.61
2023-02-09T13:39:19.449Z,68.38
2023-02-09T13:45:35.376Z,68.14
2023-02-09T13:51:35.608Z,68.08
2023-02-09T13:57:29.950Z,67.96
2023-02-09T14:03:28.680Z,67.75
2023-02-09T14:09:38.974Z,67.43
2023-02-09T14:15:50.171Z,67.79
2023-02-09T14:21:16.667Z,67.61
2023-02-09T14:27:47.206Z,67.71
2023-02-09T14:33:41.752Z,67.73
2023-02-09T14:39:54.431Z,67.54
2023-02-09T14:52:36.826Z,67.52
2023-02-09T14:59:14.111Z,67.33
2023-02-09T15:05:26.380Z,67.37
2023-02-09T15:11:45.348Z,67.54
2023-02-09T15:17:52.037Z,67.49
2023-02-09T15:23:28.974Z,67.52
2023-02-09T15:28:53.097Z,67.67
2023-02-09T15:34:54.312Z,67.67
2023-02-09T15:41:51.889Z,67.84
2023-02-09T15:48:33.429Z,68.04
2023-02-09T15:54:06.127Z,68.14
2023-02-09T15:59:35.610Z,68.28
2023-02-09T16:04:46.671Z,68.36
2023-02-09T16:10:52.818Z,68.38
2023-02-09T16:17:02.320Z,68.77
2023-02-09T16:23:27.830Z,68.95
2023-02-09T16:37:21.135Z,69.27
2023-02-09T16:43:44.667Z,69.40
2023-02-09T16:49:19.423Z,69.47
2023-02-09T16:55:29.658Z,69.70
2023-02-09T17:02:00.393Z,69.84
2023-02-09T17:15:28.424Z,70.53
2023-02-09T17:22:00.105Z,70.67
2023-02-09T17:28:29.042Z,70.86
2023-02-09T17:34:55.922Z,70.78
2023-02-09T17:41:26.010Z,71.16
2023-02-09T17:47:55.387Z,71.33
2023-02-09T17:54:21.116Z,71.26
2023-02-09T18:00:30.888Z,71.48
2023-02-09T18:07:10.417Z,71.63
2023-02-09T18:13:16.910Z,71.59
2023-02-09T18:19:35.555Z,71.96
2023-02-09T18:25:40.922Z,72.06
2023-02-09T18:31:50.692Z,71.97
2023-02-09T18:38:07.511Z,72.00
2023-02-09T18:44:17.475Z,71.91
2023-02-09T18:49:57.742Z,72.27
2023-02-09T18:55:25.555Z,72.51
2023-02-09T19:01:08.611Z,72.24
2023-02-09T19:07:34.870Z,72.21
2023-02-09T19:13:22.064Z,72.47
2023-02-09T19:18:42.149Z,72.55
2023-02-09T19:23:52.266Z,72.61
2023-02-09T19:29:29.043Z,72.65
2023-02-09T19:34:47.572Z,72.52
2023-02-09T19:40:05.785Z,72.52
2023-02-09T19:45:17.781Z,72.87
2023-02-09T19:50:24.580Z,72.94
2023-02-09T19:55:36.313Z,73.03
2023-02-09T20:00:44.571Z,73.20
2023-02-09T20:05:53.520Z,73.16
2023-02-09T20:11:20.756Z,73.38
2023-02-09T20:16:31.945Z,73.51
2023-02-09T20:21:48.127Z,73.59
2023-02-09T20:27:05.996Z,73.61
2023-02-09T20:32:14.492Z,73.94
2023-02-09T20:37:29.916Z,73.72
2023-02-09T20:42:56.116Z,73.25
2023-02-09T20:48:06.134Z,73.33
2023-02-09T20:53:35.419Z,73.15
2023-02-09T20:58:44.384Z,73.28
2023-02-09T21:04:19.165Z,73.07
2023-02-09T21:09:38.086Z,72.69
2023-02-09T21:14:49.919Z,72.84
2023-02-09T21:19:55.786Z,72.65
2023-02-09T21:25:11.338Z,72.60
2023-02-09T21:30:30.772Z,72.81
2023-02-09T21:35:39.155Z,72.70
2023-02-09T21:40:53.571Z,72.65
2023-02-09T21:46:00.325Z,72.78
2023-02-09T21:51:14.163Z,72.81
2023-02-09T21:56:26.535Z,72.83
2023-02-09T22:01:35.165Z,72.95
2023-02-09T22:06:39.731Z,73.03
2023-02-09T22:11:44.489Z,73.04
2023-02-09T22:16:51.340Z,73.19
2023-02-09T22:21:58.830Z,73.30
2023-02-09T22:27:04.735Z,73.39
2023-02-09T22:32:14.214Z,73.42
2023-02-09T22:37:18.906Z,73.42
2023-02-09T22:42:23.048Z,73.20
2023-02-09T22:47:27.786Z,73.39
2023-02-09T22:52:32.642Z,73.70
2023-02-09T22:57:39.947Z,73.51
2023-02-09T23:02:56.360Z,73.52
2023-02-09T23:08:01.025Z,73.65
2023-02-09T23:13:08.986Z,73.50
2023-02-09T23:18:22.145Z,73.60
2023-02-09T23:23:27.425Z,73.49
2023-02-09T23:28:57.227Z,73.58
2023-02-09T23:34:07.798Z,73.29
2023-02-09T23:39:15.837Z,73.53
2023-02-09T23:44:20.262Z,73.84
2023-02-09T23:49:25.630Z,73.85
2023-02-09T23:54:31.693Z,73.71
2023-02-09T23:59:49.010Z,73.45
